createdAt,value
2018-12-30T00:01:26.924Z,2.00
2018-12-30T00:03:55.966Z,2.40
2018-12-30T00:06:25.470Z,2.00
2018-12-30T00:08:54.844Z,1.60
2018-12-30T00:11:24.055Z,2.00
2018-12-30T00:13:53.147Z,1.00
2018-12-30T00:16:22.390Z,1.00
2018-12-30T00:18:51.595Z,1.60
2018-12-30T00:21:20.745Z,0.00
2018-12-30T00:23:49.918Z,1.20
2018-12-30T00:26:19.083Z,1.00
2018-12-30T00:28:49.272Z,1.00
2018-12-30T00:31:18.765Z,1.00
2018-12-30T00:33:48.062Z,1.00
2018-12-30T00:36:17.148Z,1.00
2018-12-30T00:38:46.346Z,2.00
2018-12-30T00:41:15.535Z,1.20
2018-12-30T00:43:44.966Z,1.00
2018-12-30T00:46:14.045Z,3.00
2018-12-30T00:48:43.095Z,1.40
2018-12-30T00:51:16.927Z,1.20
2018-12-30T00:53:42.881Z,0.60
2018-12-30T00:56:12.081Z,1.20
2018-12-30T00:58:41.165Z,1.00
2018-12-30T01:01:10.398Z,1.00
2018-12-30T01:03:39.715Z,1.00
2018-12-30T01:06:08.874Z,0.60
2018-12-30T01:08:38.015Z,0.00
2018-12-30T01:11:07.359Z,1.00
2018-12-30T01:13:36.424Z,1.00
2018-12-30T01:16:05.499Z,0.00
2018-12-30T01:18:34.575Z,1.00
2018-12-30T01:21:03.721Z,1.00
2018-12-30T01:23:32.903Z,1.00
2018-12-30T01:26:01.945Z,1.00
2018-12-30T01:28:31.111Z,1.80
2018-12-30T01:31:00.498Z,1.40
2018-12-30T01:33:29.562Z,1.00
2018-12-30T01:35:59.409Z,1.20
2018-12-30T01:38:28.595Z,1.00
2018-12-30T01:40:57.632Z,1.00
2018-12-30T01:43:26.746Z,2.00
2018-12-30T01:45:55.944Z,1.60
2018-12-30T01:48:25.132Z,1.20
2018-12-30T01:50:54.435Z,1.00
2018-12-30T01:53:23.774Z,1.40
2018-12-30T01:55:52.960Z,0.00
2018-12-30T01:58:22.494Z,0.40
2018-12-30T02:00:51.581Z,0.60
2018-12-30T02:03:20.958Z,0.40
2018-12-30T02:05:50.031Z,5.00
2018-12-30T02:08:19.169Z,27.75
2018-12-30T02:10:48.152Z,24.00
2018-12-30T02:13:17.024Z,70.25
2018-12-30T02:15:46.187Z,119.25
2018-12-30T02:18:15.079Z,151.25
2018-12-30T02:20:43.923Z,162.75
2018-12-30T02:23:12.758Z,193.20
2018-12-30T02:25:41.642Z,214.00
2018-12-30T02:28:10.896Z,214.80
2018-12-30T02:30:39.826Z,229.60
2018-12-30T02:33:09.076Z,221.00
2018-12-30T02:35:37.938Z,220.80
2018-12-30T02:38:07.168Z,234.20
2018-12-30T02:40:36.499Z,241.00
2018-12-30T02:43:05.404Z,232.40
2018-12-30T02:45:34.281Z,247.20
2018-12-30T02:48:03.172Z,247.20
2018-12-30T02:50:32.069Z,238.00
2018-12-30T02:53:01.007Z,234.80
2018-12-30T02:55:30.071Z,233.20
2018-12-30T02:57:58.964Z,225.60
2018-12-30T03:00:28.164Z,209.75
2018-12-30T03:02:57.011Z,213.75
2018-12-30T03:05:25.874Z,207.75
2018-12-30T03:07:54.707Z,210.20
2018-12-30T03:10:23.661Z,206.40
2018-12-30T03:12:52.712Z,198.00
2018-12-30T03:15:21.570Z,197.00
2018-12-30T03:17:50.433Z,191.40
2018-12-30T03:20:19.295Z,188.80
2018-12-30T03:22:48.157Z,187.20
2018-12-30T03:25:17.018Z,185.80
2018-12-30T03:27:45.896Z,171.50
2018-12-30T03:30:14.746Z,167.75
2018-12-30T03:32:43.585Z,175.50
2018-12-30T03:35:12.580Z,164.75
2018-12-30T03:37:41.437Z,167.50
2018-12-30T03:40:10.758Z,163.50
2018-12-30T03:42:39.602Z,154.25
2018-12-30T03:45:08.676Z,151.75
2018-12-30T03:47:37.538Z,147.00
2018-12-30T03:50:06.840Z,136.50
2018-12-30T03:52:35.705Z,141.75
2018-12-30T03:55:04.559Z,137.75
2018-12-30T03:57:33.417Z,140.50
2018-12-30T04:00:04.328Z,134.00
2018-12-30T04:02:34.292Z,130.50
2018-12-30T04:05:03.139Z,133.50
2018-12-30T04:07:31.967Z,126.00
2018-12-30T04:10:00.833Z,124.75
2018-12-30T04:12:30.122Z,125.00
2018-12-30T04:14:59.126Z,123.00
2018-12-30T04:17:28.366Z,118.50
2018-12-30T04:19:57.212Z,113.25
2018-12-30T04:22:26.062Z,118.50
2018-12-30T04:24:54.945Z,117.25
2018-12-30T04:27:24.111Z,111.25
2018-12-30T04:29:53.001Z,109.75
2018-12-30T04:32:21.894Z,111.50
2018-12-30T04:34:50.760Z,109.00
2018-12-30T04:37:19.628Z,107.50
2018-12-30T04:39:48.498Z,100.50
2018-12-30T04:42:17.555Z,105.25
2018-12-30T04:44:46.713Z,104.25
2018-12-30T04:47:15.747Z,100.00
2018-12-30T04:49:44.786Z,97.50
2018-12-30T04:52:13.660Z,93.00
2018-12-30T04:54:42.544Z,96.25
2018-12-30T04:57:11.395Z,91.75
2018-12-30T04:59:40.269Z,94.75
2018-12-30T05:02:09.163Z,91.00
2018-12-30T05:04:38.033Z,89.75
2018-12-30T05:07:06.873Z,81.50
2018-12-30T05:09:35.750Z,78.00
2018-12-30T05:12:04.598Z,78.25
2018-12-30T05:14:33.462Z,76.50
2018-12-30T05:17:02.352Z,74.75
2018-12-30T05:19:31.799Z,74.25
2018-12-30T05:22:00.803Z,79.75
2018-12-30T05:24:29.670Z,70.25
2018-12-30T05:26:58.503Z,72.00
2018-12-30T05:29:27.794Z,72.25
2018-12-30T05:31:56.665Z,71.25
2018-12-30T05:34:25.516Z,66.75
2018-12-30T05:36:54.368Z,68.50
2018-12-30T05:39:23.231Z,68.75
2018-12-30T05:41:52.046Z,66.75
2018-12-30T05:44:21.240Z,65.50
2018-12-30T05:46:50.089Z,64.75
2018-12-30T05:49:19.115Z,62.50
2018-12-30T05:51:47.948Z,62.75
2018-12-30T05:54:16.964Z,64.25
2018-12-30T05:56:45.827Z,63.00
2018-12-30T05:59:14.656Z,60.50
2018-12-30T06:01:43.508Z,61.75
2018-12-30T06:04:12.359Z,57.50
2018-12-30T06:06:41.193Z,56.75
2018-12-30T06:09:10.066Z,55.75
2018-12-30T06:11:38.926Z,56.75
2018-12-30T06:14:07.767Z,58.25
2018-12-30T06:16:36.634Z,56.00
2018-12-30T06:19:05.487Z,55.75
2018-12-30T06:21:34.336Z,53.00
2018-12-30T06:24:03.221Z,55.75
2018-12-30T06:26:32.250Z,53.75
2018-12-30T06:29:01.103Z,51.25
2018-12-30T06:31:29.975Z,52.00
2018-12-30T06:33:59.194Z,50.00
2018-12-30T06:36:28.050Z,50.50
2018-12-30T06:38:56.930Z,48.50
2018-12-30T06:41:25.788Z,41.00
2018-12-30T06:43:54.641Z,37.75
2018-12-30T06:46:23.862Z,36.75
2018-12-30T06:48:52.684Z,35.00
2018-12-30T06:51:21.723Z,33.50
2018-12-30T06:53:50.598Z,32.75
2018-12-30T06:56:20.078Z,31.75
2018-12-30T06:58:49.085Z,32.00
2018-12-30T07:01:17.985Z,32.50
2018-12-30T07:03:47.283Z,32.50
2018-12-30T07:06:16.147Z,31.00
